createdAt,value
2022-12-08T00:01:27.204Z,0.80
2022-12-08T00:03:54.856Z,0.80
2022-12-08T00:06:57.984Z,0.80
2022-12-08T00:12:03.955Z,0.90
2022-12-08T00:14:33.635Z,1.00
2022-12-08T00:21:56.734Z,0.80
2022-12-08T00:24:25.716Z,0.80
2022-12-08T00:26:52.500Z,0.50
2022-12-08T00:34:15.626Z,1.00
2022-12-08T00:39:12.331Z,0.80
2022-12-08T00:41:58.101Z,0.80
2022-12-08T00:47:09.259Z,0.90
2022-12-08T01:09:16.618Z,1.00
2022-12-08T01:19:11.454Z,0.90
2022-12-08T01:26:33.427Z,1.00
2022-12-08T01:41:20.452Z,0.90
2022-12-08T01:44:24.627Z,0.90
2022-12-08T01:46:53.657Z,0.90
2022-12-08T01:49:32.418Z,1.00
2022-12-08T01:54:32.260Z,0.10
2022-12-08T01:57:03.097Z,1.10
2022-12-08T01:59:33.093Z,0.90
2022-12-08T02:06:55.552Z,0.90
2022-12-08T02:11:51.377Z,0.80
2022-12-08T02:14:18.420Z,0.80
2022-12-08T02:17:07.016Z,0.70
2022-12-08T02:20:00.397Z,0.80
2022-12-08T02:22:59.833Z,0.90
2022-12-08T02:25:35.578Z,1.00
2022-12-08T02:28:23.181Z,0.90
2022-12-08T02:31:24.261Z,0.80
2022-12-08T02:34:16.007Z,1.60
2022-12-08T02:36:58.038Z,0.80
2022-12-08T02:39:33.779Z,0.90
2022-12-08T02:42:16.599Z,0.90
2022-12-08T02:44:53.021Z,0.70
2022-12-08T02:47:22.211Z,0.80
2022-12-08T02:52:19.607Z,1.00
2022-12-08T02:54:50.864Z,0.80
2022-12-08T02:57:36.158Z,1.10
2022-12-08T03:03:05.346Z,0.80
2022-12-08T03:08:12.457Z,0.80
2022-12-08T03:11:11.242Z,0.80
2022-12-08T03:13:43.831Z,0.90
2022-12-08T03:16:15.331Z,0.90
2022-12-08T03:18:48.475Z,0.90
2022-12-08T03:21:17.365Z,0.50
2022-12-08T03:23:45.983Z,0.80
2022-12-08T03:26:18.940Z,0.80
2022-12-08T03:31:16.075Z,0.90
2022-12-08T03:33:47.178Z,0.90
2022-12-08T03:36:15.442Z,0.90
2022-12-08T03:38:45.369Z,0.80
2022-12-08T03:43:52.021Z,0.80
2022-12-08T03:48:47.400Z,0.80
2022-12-08T03:56:28.971Z,0.80
2022-12-08T03:58:56.308Z,0.70
2022-12-08T04:03:51.223Z,0.80
2022-12-08T04:11:13.313Z,0.90
2022-12-08T04:13:41.523Z,0.90
2022-12-08T04:18:36.409Z,0.90
2022-12-08T04:45:43.075Z,1.00
2022-12-08T04:50:41.827Z,0.90
2022-12-08T04:55:40.469Z,1.00
2022-12-08T05:25:08.905Z,0.90
2022-12-08T05:27:36.469Z,0.90
2022-12-08T06:06:59.467Z,0.60
2022-12-08T06:11:53.919Z,0.30
2022-12-08T06:19:16.376Z,0.40
2022-12-08T06:24:10.609Z,0.50
2022-12-08T06:36:28.755Z,0.40
2022-12-08T06:38:56.212Z,0.50
2022-12-08T06:41:23.331Z,0.20
2022-12-08T06:46:19.803Z,0.40
2022-12-08T06:48:47.037Z,0.50
2022-12-08T06:51:17.527Z,0.40
2022-12-08T06:53:46.005Z,0.50
2022-12-08T06:56:15.847Z,0.40
2022-12-08T06:58:46.076Z,0.20
2022-12-08T07:03:43.925Z,0.40
2022-12-08T07:06:17.004Z,0.50
2022-12-08T07:11:16.568Z,0.40
2022-12-08T07:21:13.264Z,0.30
2022-12-08T07:26:10.305Z,0.60
2022-12-08T07:28:38.883Z,0.60
2022-12-08T07:31:06.923Z,0.50
2022-12-08T07:33:36.194Z,0.40
2022-12-08T07:36:06.811Z,0.60
2022-12-08T07:41:01.901Z,0.70
2022-12-08T07:50:51.185Z,0.90
2022-12-08T08:10:31.271Z,0.90
2022-12-08T08:13:01.675Z,1.10
2022-12-08T08:22:51.697Z,1.10
2022-12-08T08:25:20.540Z,1.00
2022-12-08T08:30:20.359Z,1.00
2022-12-08T08:32:49.094Z,1.00
2022-12-08T08:35:17.617Z,0.90
2022-12-08T08:37:48.838Z,0.80
2022-12-08T08:40:17.148Z,1.20
2022-12-08T08:50:07.129Z,1.30
2022-12-08T08:52:34.493Z,1.40
2022-12-08T08:55:01.755Z,1.40
2022-12-08T08:59:56.155Z,1.30
2022-12-08T09:19:35.856Z,1.10
2022-12-08T09:29:26.866Z,1.10
2022-12-08T09:31:56.481Z,1.10
2022-12-08T09:41:50.350Z,1.30
2022-12-08T09:44:45.893Z,1.40
2022-12-08T09:47:18.751Z,1.50
2022-12-08T09:50:02.583Z,1.60
2022-12-08T09:52:47.305Z,1.80
2022-12-08T09:55:40.595Z,2.10
2022-12-08T09:58:30.263Z,2.00
2022-12-08T10:00:57.316Z,2.00
2022-12-08T10:03:29.545Z,2.20
2022-12-08T10:06:30.547Z,1.80
2022-12-08T10:09:22.994Z,1.80
2022-12-08T10:11:59.075Z,0.60
2022-12-08T10:14:53.866Z,1.60
2022-12-08T10:17:35.380Z,1.60
2022-12-08T10:20:40.307Z,1.50
2022-12-08T10:23:12.792Z,1.60
2022-12-08T10:25:52.974Z,1.50
2022-12-08T10:30:47.068Z,1.60
2022-12-08T10:33:19.452Z,1.50
2022-12-08T10:36:03.227Z,1.70
2022-12-08T10:38:32.433Z,1.70
2022-12-08T10:41:11.585Z,1.60
2022-12-08T10:46:20.871Z,1.70
2022-12-08T10:48:53.926Z,1.40
2022-12-08T10:51:30.087Z,1.80
2022-12-08T10:56:27.944Z,1.60
2022-12-08T10:59:14.971Z,1.30
2022-12-08T11:01:43.068Z,1.40
2022-12-08T11:04:37.686Z,1.40
2022-12-08T11:07:11.273Z,2.00
2022-12-08T11:09:48.966Z,1.20
2022-12-08T11:12:20.910Z,1.30
2022-12-08T11:15:03.198Z,1.30
2022-12-08T11:17:39.596Z,0.90
2022-12-08T11:20:09.653Z,1.10
2022-12-08T11:22:44.546Z,1.20
2022-12-08T11:25:23.486Z,1.30
2022-12-08T11:27:53.958Z,0.80
2022-12-08T11:30:28.085Z,1.00
2022-12-08T11:33:15.813Z,1.00
2022-12-08T11:35:47.612Z,0.90
2022-12-08T11:38:24.439Z,1.00
2022-12-08T11:40:55.964Z,0.90
2022-12-08T11:43:35.456Z,0.70
2022-12-08T11:46:10.297Z,0.70
2022-12-08T11:48:40.777Z,0.90
2022-12-08T11:51:37.030Z,0.70
2022-12-08T11:54:23.174Z,0.70
2022-12-08T11:56:56.494Z,0.90
2022-12-08T11:59:32.208Z,0.70
2022-12-08T12:02:01.932Z,1.10
2022-12-08T12:04:55.492Z,1.00
2022-12-08T12:07:41.201Z,1.10
2022-12-08T12:10:26.071Z,1.10
2022-12-08T12:13:02.842Z,0.80
2022-12-08T12:15:51.171Z,0.80
2022-12-08T12:18:49.326Z,0.90
2022-12-08T12:21:19.615Z,0.90
2022-12-08T12:24:30.475Z,1.10
2022-12-08T12:27:20.040Z,2.30
2022-12-08T12:29:55.948Z,0.80
2022-12-08T12:32:24.596Z,0.60
2022-12-08T12:34:55.651Z,0.90
2022-12-08T12:37:38.527Z,0.40
2022-12-08T12:40:11.562Z,0.50
2022-12-08T12:42:42.784Z,0.50
2022-12-08T12:45:18.485Z,0.40
2022-12-08T12:47:56.262Z,0.40
2022-12-08T12:50:33.643Z,0.50
2022-12-08T12:53:01.629Z,0.30
2022-12-08T12:55:50.275Z,0.50
2022-12-08T12:58:32.096Z,0.30
2022-12-08T13:01:13.937Z,0.00
2022-12-08T13:03:47.442Z,0.50
2022-12-08T13:06:21.564Z,0.20
2022-12-08T13:08:55.214Z,0.20
2022-12-08T13:11:23.512Z,0.10
2022-12-08T13:14:04.785Z,-0.20
2022-12-08T13:16:34.484Z,0.00
2022-12-08T13:19:04.996Z,0.00
2022-12-08T13:21:38.478Z,-0.10
2022-12-08T13:24:13.931Z,0.00
2022-12-08T13:27:04.074Z,-0.20
2022-12-08T13:29:32.699Z,0.10
2022-12-08T13:32:05.052Z,-0.10
2022-12-08T13:34:48.710Z,-0.60
2022-12-08T13:37:27.432Z,-0.10
2022-12-08T13:40:08.615Z,-0.30
2022-12-08T13:42:50.271Z,-0.50
2022-12-08T13:45:58.948Z,-0.40
2022-12-08T13:48:35.196Z,-0.20
2022-12-08T13:57:19.734Z,-0.50
2022-12-08T14:02:27.279Z,-0.50
2022-12-08T14:07:43.029Z,-0.50
2022-12-08T14:10:23.487Z,-0.70
2022-12-08T14:13:02.749Z,-0.60
2022-12-08T14:15:37.492Z,-0.60
2022-12-08T14:18:07.199Z,-0.80
2022-12-08T14:20:58.054Z,-0.80
2022-12-08T14:25:50.094Z,-0.50
2022-12-08T14:33:15.304Z,-1.00
2022-12-08T14:35:42.350Z,-0.60
2022-12-08T14:38:15.034Z,-0.40
2022-12-08T14:40:59.329Z,-0.90
2022-12-08T14:43:28.553Z,-0.60
2022-12-08T14:46:02.536Z,-0.60
2022-12-08T14:48:36.237Z,-0.80
2022-12-08T14:51:26.085Z,-0.40
2022-12-08T14:54:00.763Z,-0.50
2022-12-08T14:56:37.375Z,-0.60
2022-12-08T14:59:15.844Z,-0.30
2022-12-08T15:01:43.812Z,-0.50
2022-12-08T15:04:25.478Z,0.60
2022-12-08T15:07:05.732Z,-0.60
2022-12-08T15:09:37.729Z,-0.70
2022-12-08T15:12:24.795Z,-0.70
2022-12-08T15:15:17.115Z,-0.60
2022-12-08T15:17:50.368Z,-0.80
2022-12-08T15:20:31.695Z,-0.60
2022-12-08T15:23:02.649Z,-0.60
2022-12-08T15:25:29.865Z,-0.80
2022-12-08T15:27:58.097Z,-0.60
2022-12-08T15:40:27.307Z,-0.70
2022-12-08T15:42:54.419Z,-0.80
2022-12-08T15:45:28.710Z,-1.80
2022-12-08T15:50:23.966Z,-0.70
2022-12-08T15:52:51.483Z,-0.50
2022-12-08T15:55:20.819Z,-0.70
2022-12-08T16:00:54.762Z,-0.70
2022-12-08T16:09:14.387Z,-0.40
2022-12-08T16:17:26.042Z,-0.40
2022-12-08T16:19:52.986Z,-0.70
2022-12-08T16:30:34.414Z,-0.50
2022-12-08T16:35:29.089Z,-0.70
2022-12-08T16:37:56.112Z,-0.40
2022-12-08T16:42:52.995Z,-0.70
2022-12-08T16:45:22.803Z,-0.70
2022-12-08T16:50:18.533Z,-0.40
2022-12-08T16:52:46.415Z,-0.40
2022-12-08T16:55:16.072Z,-0.50
2022-12-08T17:00:13.925Z,-0.30
2022-12-08T17:05:09.023Z,-0.30
2022-12-08T17:07:36.342Z,-0.30
2022-12-08T17:10:08.754Z,-0.20
2022-12-08T17:12:35.914Z,-0.20
2022-12-08T17:15:11.771Z,-0.20
2022-12-08T17:20:09.759Z,-0.50
2022-12-08T17:25:05.671Z,-0.30
2022-12-08T17:27:32.623Z,-0.10
2022-12-08T17:34:54.813Z,-0.10
2022-12-08T17:44:44.262Z,0.10
2022-12-08T17:47:11.079Z,0.30
2022-12-08T17:52:11.376Z,0.30
2022-12-08T17:57:06.478Z,0.10
2022-12-08T18:02:01.427Z,0.00
2022-12-08T18:16:49.079Z,0.10
2022-12-08T18:19:16.547Z,0.30
2022-12-08T18:24:22.192Z,0.30
2022-12-08T18:26:52.119Z,0.10
2022-12-08T18:29:20.642Z,0.30
2022-12-08T18:36:42.445Z,0.10
2022-12-08T18:39:21.436Z,0.10
2022-12-08T18:41:48.383Z,0.10
2022-12-08T18:46:42.641Z,0.30
2022-12-08T18:49:13.284Z,0.10
2022-12-08T18:51:40.271Z,-0.10
2022-12-08T18:56:36.072Z,0.10
2022-12-08T18:59:11.297Z,0.00
2022-12-08T19:01:39.893Z,0.00
2022-12-08T19:06:56.945Z,0.10
2022-12-08T19:09:26.803Z,-0.10
2022-12-08T19:21:51.131Z,0.00
2022-12-08T19:24:18.361Z,0.00
2022-12-08T19:26:45.655Z,-0.10
2022-12-08T19:31:40.888Z,0.60
2022-12-08T19:36:42.465Z,0.10
2022-12-08T19:39:57.704Z,-0.10
2022-12-08T19:45:15.791Z,-0.20
2022-12-08T19:47:43.360Z,0.00
2022-12-08T19:50:30.240Z,0.00
2022-12-08T19:57:52.969Z,-0.10
2022-12-08T20:00:20.979Z,-0.30
2022-12-08T20:02:48.650Z,-0.30
2022-12-08T20:05:15.729Z,-0.30
2022-12-08T20:07:42.854Z,-0.50
2022-12-08T20:10:16.582Z,0.00
2022-12-08T20:12:43.526Z,-0.10
2022-12-08T20:15:11.129Z,-0.20
2022-12-08T20:17:39.001Z,-0.30
2022-12-08T20:20:08.022Z,-0.70
2022-12-08T20:22:35.210Z,-0.60
2022-12-08T20:25:02.816Z,-0.50
2022-12-08T20:32:26.329Z,-0.30
2022-12-08T20:44:44.763Z,-0.50
2022-12-08T20:47:12.928Z,-0.40
2022-12-08T20:49:40.014Z,-0.70
2022-12-08T20:52:07.741Z,-0.60
2022-12-08T20:54:35.260Z,-0.60
2022-12-08T20:59:29.977Z,0.20
2022-12-08T21:01:57.264Z,-0.30
2022-12-08T21:04:24.685Z,-0.40
2022-12-08T21:09:19.363Z,-0.30
2022-12-08T21:11:46.603Z,-0.50
2022-12-08T21:21:36.172Z,-0.80
2022-12-08T21:26:31.222Z,-0.60
2022-12-08T21:29:01.441Z,-0.40
2022-12-08T21:33:59.814Z,0.40
2022-12-08T21:36:27.227Z,-0.30
2022-12-08T21:41:42.113Z,-0.40
2022-12-08T21:44:12.197Z,-0.40
2022-12-08T21:51:37.881Z,-0.20
2022-12-08T21:56:32.958Z,0.60
2022-12-08T21:58:59.950Z,-0.50
2022-12-08T22:01:27.190Z,0.00
2022-12-08T22:03:54.474Z,-0.20
2022-12-08T22:06:21.766Z,0.60
2022-12-08T22:11:33.373Z,0.00
2022-12-08T22:16:27.810Z,-0.10
2022-12-08T22:18:55.130Z,-0.40
2022-12-08T22:26:17.180Z,-0.30
2022-12-08T22:31:21.122Z,-0.40
2022-12-08T22:33:49.548Z,-0.50
2022-12-08T22:36:19.765Z,-0.20
2022-12-08T22:41:14.929Z,-0.60
2022-12-08T22:43:42.446Z,-0.80
2022-12-08T22:46:15.537Z,-0.40
2022-12-08T22:48:43.238Z,-0.60
2022-12-08T22:51:10.888Z,-0.40
2022-12-08T22:53:38.201Z,-0.50
2022-12-08T22:56:06.892Z,-0.60
2022-12-08T23:03:29.026Z,-0.50
2022-12-08T23:05:56.057Z,-0.50
2022-12-08T23:08:23.876Z,-0.70
2022-12-08T23:10:52.806Z,-0.50
2022-12-08T23:13:20.206Z,-0.50
2022-12-08T23:15:47.738Z,-0.60
2022-12-08T23:18:17.084Z,-0.60
2022-12-08T23:23:11.611Z,-0.80
2022-12-08T23:25:42.618Z,-0.40
2022-12-08T23:28:10.720Z,-0.50
2022-12-08T23:30:40.788Z,-0.40
2022-12-08T23:42:57.904Z,-0.60
2022-12-08T23:47:52.349Z,-0.70
2022-12-08T23:50:19.632Z,-0.90
2022-12-08T23:52:46.508Z,-1.00
2022-12-08T23:55:13.567Z,-0.60
2022-12-08T23:57:40.540Z,-1.00
